createdAt,value
2023-05-04T00:01:34.006Z,100861.70
2023-05-04T00:04:05.960Z,100864.69
2023-05-04T00:06:38.461Z,100863.45
2023-05-04T00:09:13.250Z,100863.20
2023-05-04T00:11:45.034Z,100860.09
2023-05-04T00:14:16.882Z,100863.47
2023-05-04T00:16:48.798Z,100866.33
2023-05-04T00:19:21.157Z,100873.62
2023-05-04T00:21:52.733Z,100875.98
2023-05-04T00:24:24.571Z,100879.68
2023-05-04T00:26:56.270Z,100877.97
2023-05-04T00:29:28.123Z,100874.02
2023-05-04T00:31:59.833Z,100870.45
2023-05-04T00:34:33.729Z,100866.36
2023-05-04T00:37:06.517Z,100876.87
2023-05-04T00:39:38.147Z,100871.33
2023-05-04T00:42:10.194Z,100869.75
2023-05-04T00:44:42.369Z,100873.09
2023-05-04T00:47:13.944Z,100870.49
2023-05-04T00:49:46.184Z,100873.48
2023-05-04T00:52:17.798Z,100875.10
2023-05-04T00:54:49.628Z,100881.81
2023-05-04T00:57:21.512Z,100878.22
2023-05-04T00:59:54.861Z,100882.07
2023-05-04T01:02:26.554Z,100881.21
2023-05-04T01:04:58.533Z,100884.84
2023-05-04T01:07:46.422Z,100878.55
2023-05-04T01:10:30.396Z,100882.24
2023-05-04T01:13:13.367Z,100874.02
2023-05-04T01:15:45.061Z,100862.94
2023-05-04T01:18:17.372Z,100867.33
2023-05-04T01:20:48.952Z,100867.33
2023-05-04T01:23:21.134Z,100864.33
2023-05-04T01:26:04.066Z,100868.80
2023-05-04T01:28:53.981Z,100868.66
2023-05-04T01:31:25.633Z,100874.28
2023-05-04T01:33:57.760Z,100874.61
2023-05-04T01:36:30.619Z,100858.88
2023-05-04T01:39:03.372Z,100862.36
2023-05-04T01:41:37.046Z,100863.08
2023-05-04T01:44:09.005Z,100858.52
2023-05-04T01:46:41.603Z,100856.56
2023-05-04T01:49:13.621Z,100847.02
2023-05-04T01:51:46.864Z,100845.44
2023-05-04T01:54:18.730Z,100842.28
2023-05-04T01:56:50.655Z,100845.41
2023-05-04T01:59:22.735Z,100848.33
2023-05-04T02:01:54.562Z,100847.72
2023-05-04T02:04:26.739Z,100837.75
2023-05-04T02:06:58.911Z,100842.37
2023-05-04T02:09:31.871Z,100846.11
2023-05-04T02:12:03.689Z,100845.12
2023-05-04T02:14:35.383Z,100845.25
2023-05-04T02:17:08.997Z,100856.53
2023-05-04T02:19:41.236Z,100860.40
2023-05-04T02:22:13.126Z,100868.83
2023-05-04T02:24:44.768Z,100859.34
2023-05-04T02:27:16.729Z,100851.96
2023-05-04T02:29:49.555Z,100857.23
2023-05-04T02:32:21.183Z,100860.09
2023-05-04T02:34:54.329Z,100855.22
2023-05-04T02:37:25.954Z,100856.98
2023-05-04T02:39:57.505Z,100853.81
2023-05-04T02:42:29.236Z,100864.21
2023-05-04T02:45:00.984Z,100861.79
2023-05-04T02:47:32.933Z,100853.53
2023-05-04T02:50:06.413Z,100844.14
2023-05-04T02:52:38.561Z,100847.86
2023-05-04T02:55:29.603Z,100840.09
2023-05-04T02:58:01.658Z,100846.54
2023-05-04T03:00:33.951Z,100854.53
2023-05-04T03:03:05.795Z,100862.57
2023-05-04T03:05:38.644Z,100855.16
2023-05-04T03:08:10.595Z,100855.02
2023-05-04T03:10:42.567Z,100858.00
2023-05-04T03:13:14.308Z,100848.03
2023-05-04T03:15:46.074Z,100840.38
2023-05-04T03:18:18.194Z,100832.35
2023-05-04T03:20:51.333Z,100827.14
2023-05-04T03:23:24.510Z,100830.60
2023-05-04T03:25:56.713Z,100833.06
2023-05-04T03:28:28.870Z,100839.34
2023-05-04T03:31:01.397Z,100841.58
2023-05-04T03:33:33.939Z,100836.23
2023-05-04T03:36:06.371Z,100843.00
2023-05-04T03:38:41.703Z,100844.88
2023-05-04T03:41:14.506Z,100852.05
2023-05-04T03:43:46.272Z,100856.96
2023-05-04T03:46:18.158Z,100844.94
2023-05-04T03:48:50.063Z,100849.11
2023-05-04T03:51:22.150Z,100847.00
2023-05-04T03:53:54.004Z,100842.83
2023-05-04T03:56:26.066Z,100845.25
2023-05-04T03:58:57.824Z,100849.93
2023-05-04T04:01:31.323Z,100848.52
2023-05-04T04:04:03.474Z,100853.70
2023-05-04T04:06:35.813Z,100860.37
2023-05-04T04:09:07.612Z,100865.42
2023-05-04T04:11:39.198Z,100859.84
2023-05-04T04:14:11.434Z,100860.06
2023-05-04T04:16:46.096Z,100861.89
2023-05-04T04:19:17.727Z,100858.62
2023-05-04T04:21:49.545Z,100858.84
2023-05-04T04:24:21.303Z,100859.28
2023-05-04T04:26:53.408Z,100853.02
2023-05-04T04:29:48.408Z,100858.60
2023-05-04T04:32:32.089Z,100852.33
2023-05-04T04:35:04.410Z,100861.75
2023-05-04T04:37:36.246Z,100866.30
2023-05-04T04:40:08.958Z,100855.73
2023-05-04T04:42:41.997Z,100864.48
2023-05-04T04:45:15.515Z,100866.09
2023-05-04T04:47:47.329Z,100878.44
2023-05-04T04:50:19.342Z,100869.98
2023-05-04T04:52:51.178Z,100868.23
2023-05-04T04:55:35.231Z,100871.97
2023-05-04T04:58:08.807Z,100862.07
2023-05-04T05:00:40.613Z,100870.61
2023-05-04T05:03:12.951Z,100869.03
2023-05-04T05:05:44.774Z,100872.50
2023-05-04T05:08:16.760Z,100875.65
2023-05-04T05:10:48.719Z,100874.56
2023-05-04T05:13:20.860Z,100868.11
2023-05-04T05:15:52.822Z,100877.24
2023-05-04T05:18:24.983Z,100878.47
2023-05-04T05:20:57.826Z,100884.72
2023-05-04T05:23:29.514Z,100881.27
2023-05-04T05:26:03.257Z,100880.98
2023-05-04T05:28:35.582Z,100873.86
2023-05-04T05:31:07.497Z,100873.93
2023-05-04T05:33:40.201Z,100869.25
2023-05-04T05:36:12.395Z,100872.25
2023-05-04T05:38:43.938Z,100869.98
2023-05-04T05:41:15.975Z,100868.37
2023-05-04T05:43:47.979Z,100875.83
2023-05-04T05:46:19.761Z,100875.23
2023-05-04T05:48:51.704Z,100878.21
2023-05-04T05:51:23.488Z,100876.52
2023-05-04T05:53:55.729Z,100867.20
2023-05-04T05:56:30.801Z,100872.30
2023-05-04T05:59:03.275Z,100870.73
2023-05-04T06:01:35.381Z,100857.03
2023-05-04T06:04:07.048Z,100862.14
2023-05-04T06:06:39.012Z,100856.00
2023-05-04T06:09:10.994Z,100858.72
2023-05-04T06:11:43.719Z,100853.66
2023-05-04T06:14:15.835Z,100854.05
2023-05-04T06:16:47.538Z,100846.72
2023-05-04T06:19:19.811Z,100846.22
2023-05-04T06:21:51.797Z,100846.63
2023-05-04T06:24:25.276Z,100850.15
2023-05-04T06:26:58.506Z,100845.11
2023-05-04T06:29:30.696Z,100848.31
2023-05-04T06:32:03.022Z,100851.30
2023-05-04T06:34:35.953Z,100853.22
2023-05-04T06:37:07.993Z,100853.72
2023-05-04T06:39:39.575Z,100852.69
2023-05-04T06:42:12.398Z,100857.23
2023-05-04T06:44:45.450Z,100855.09
2023-05-04T06:47:17.362Z,100847.70
2023-05-04T06:49:49.222Z,100849.60
2023-05-04T06:52:21.846Z,100842.91
2023-05-04T06:54:53.851Z,100838.91
2023-05-04T06:57:25.707Z,100841.66
2023-05-04T06:59:57.388Z,100840.96
2023-05-04T07:02:29.256Z,100842.16
2023-05-04T07:05:02.232Z,100831.33
2023-05-04T07:07:34.045Z,100833.25
2023-05-04T07:10:19.688Z,100834.09
2023-05-04T07:12:51.504Z,100825.34
2023-05-04T07:15:23.481Z,100834.45
2023-05-04T07:17:55.469Z,100833.91
2023-05-04T07:20:27.793Z,100836.11
2023-05-04T07:23:01.849Z,100837.78
2023-05-04T07:25:34.868Z,100840.16
2023-05-04T07:28:21.163Z,100841.84
2023-05-04T07:30:57.712Z,100839.66
2023-05-04T07:33:31.164Z,100835.29
2023-05-04T07:36:07.662Z,100834.45
2023-05-04T07:38:39.544Z,100831.97
2023-05-04T07:41:11.534Z,100837.19
2023-05-04T07:43:43.352Z,100838.89
2023-05-04T07:46:15.080Z,100839.48
2023-05-04T07:48:46.659Z,100843.02
2023-05-04T07:51:18.715Z,100851.55
2023-05-04T07:53:50.405Z,100858.03
2023-05-04T07:56:21.966Z,100859.02
2023-05-04T07:58:53.850Z,100856.22
2023-05-04T08:01:26.245Z,100853.67
2023-05-04T08:03:57.928Z,100843.77
2023-05-04T08:06:29.695Z,100847.78
2023-05-04T08:09:01.611Z,100842.91
2023-05-04T08:11:35.469Z,100833.80
2023-05-04T08:14:07.705Z,100837.33
2023-05-04T08:16:42.573Z,100841.86
2023-05-04T08:19:14.399Z,100842.22
2023-05-04T08:21:46.218Z,100840.52
2023-05-04T08:24:18.882Z,100840.19
2023-05-04T08:27:03.578Z,100836.39
2023-05-04T08:29:25.340Z,100834.72
2023-05-04T08:31:59.508Z,100832.95
2023-05-04T08:34:31.538Z,100830.66
2023-05-04T08:37:03.244Z,100827.64
2023-05-04T08:39:35.053Z,100828.12
2023-05-04T08:42:07.561Z,100830.23
2023-05-04T08:44:42.087Z,100824.61
2023-05-04T08:47:15.154Z,100823.03
2023-05-04T08:49:47.095Z,100828.38
2023-05-04T08:52:19.523Z,100824.22
2023-05-04T08:54:54.810Z,100828.77
2023-05-04T08:57:26.827Z,100826.72
2023-05-04T08:59:58.872Z,100824.08
2023-05-04T09:02:33.388Z,100824.67
2023-05-04T09:05:05.312Z,100827.20
2023-05-04T09:07:37.864Z,100822.92
2023-05-04T09:10:14.835Z,100826.45
2023-05-04T09:12:47.351Z,100826.89
2023-05-04T09:15:19.746Z,100826.89
2023-05-04T09:17:59.160Z,100833.91
2023-05-04T09:20:33.231Z,100828.61
2023-05-04T09:25:53.005Z,100827.34
2023-05-04T09:28:40.121Z,100821.41
2023-05-04T09:31:12.111Z,100831.50
2023-05-04T09:33:44.786Z,100829.80
2023-05-04T09:36:21.964Z,100821.44
2023-05-04T09:38:54.002Z,100830.52
2023-05-04T09:41:33.864Z,100818.83
2023-05-04T09:44:05.672Z,100821.12
2023-05-04T09:46:37.911Z,100813.54
2023-05-04T09:49:10.864Z,100807.98
2023-05-04T09:51:42.961Z,100811.36
2023-05-04T09:54:14.653Z,100811.59
2023-05-04T09:56:49.441Z,100805.66
2023-05-04T09:59:21.216Z,100800.22
2023-05-04T10:01:53.525Z,100801.22
2023-05-04T10:04:46.711Z,100800.42
2023-05-04T10:07:19.042Z,100799.41
2023-05-04T10:09:51.539Z,100797.45
2023-05-04T10:12:23.365Z,100795.67
2023-05-04T10:14:54.926Z,100796.52
2023-05-04T10:17:36.069Z,100794.94
2023-05-04T10:20:12.190Z,100791.39
2023-05-04T10:23:25.737Z,100788.02
2023-05-04T10:26:16.409Z,100783.47
2023-05-04T10:29:09.234Z,100778.95
2023-05-04T10:31:44.579Z,100777.81
2023-05-04T10:34:35.798Z,100778.33
2023-05-04T10:37:11.734Z,100773.61
2023-05-04T10:39:52.425Z,100766.65
2023-05-04T10:42:24.184Z,100764.01
2023-05-04T10:44:57.019Z,100767.91
2023-05-04T10:47:34.389Z,100773.07
2023-05-04T10:50:07.334Z,100768.34
2023-05-04T10:52:49.283Z,100765.61
2023-05-04T10:55:21.641Z,100776.75
2023-05-04T10:57:57.951Z,100773.44
2023-05-04T11:00:40.747Z,100769.23
2023-05-04T11:03:12.512Z,100761.28
2023-05-04T11:05:50.145Z,100759.88
2023-05-04T11:08:24.504Z,100764.23
2023-05-04T11:11:07.626Z,100764.75
2023-05-04T11:13:48.203Z,100768.60
2023-05-04T11:16:27.052Z,100773.92
2023-05-04T11:19:12.698Z,100764.71
2023-05-04T11:21:45.399Z,100755.95
2023-05-04T11:24:17.472Z,100758.73
2023-05-04T11:26:49.792Z,100754.28
2023-05-04T11:29:21.541Z,100751.23
2023-05-04T11:31:56.462Z,100744.41
2023-05-04T11:34:28.331Z,100738.44
2023-05-04T11:37:00.296Z,100741.03
2023-05-04T11:39:44.453Z,100737.66
2023-05-04T11:42:16.491Z,100741.98
2023-05-04T11:44:48.125Z,100731.82
2023-05-04T11:47:19.988Z,100731.58
2023-05-04T11:49:51.667Z,100719.48
2023-05-04T11:52:25.908Z,100716.20
2023-05-04T11:54:58.258Z,100705.83
2023-05-04T11:57:31.784Z,100710.69
2023-05-04T12:00:05.473Z,100701.55
2023-05-04T12:02:37.954Z,100701.34
2023-05-04T12:05:14.089Z,100699.89
2023-05-04T12:07:46.376Z,100695.34
2023-05-04T12:10:27.263Z,100684.00
2023-05-04T12:12:59.608Z,100688.87
2023-05-04T12:15:32.913Z,100688.37
2023-05-04T12:18:04.854Z,100688.08
2023-05-04T12:20:37.263Z,100685.34
2023-05-04T12:23:08.985Z,100681.61
2023-05-04T12:25:51.027Z,100683.53
2023-05-04T12:28:14.240Z,100685.43
2023-05-04T12:30:46.901Z,100678.98
2023-05-04T12:33:18.838Z,100679.61
2023-05-04T12:35:50.902Z,100679.34
2023-05-04T12:38:22.900Z,100678.33
2023-05-04T12:40:55.242Z,100680.90
2023-05-04T12:43:26.980Z,100674.67
2023-05-04T12:45:58.853Z,100674.70
2023-05-04T12:48:32.636Z,100679.65
2023-05-04T12:51:05.198Z,100676.28
2023-05-04T12:53:37.763Z,100678.20
2023-05-04T12:58:53.393Z,100677.33
2023-05-04T13:01:25.233Z,100679.56
2023-05-04T13:03:57.009Z,100675.28
2023-05-04T13:09:13.359Z,100673.45
2023-05-04T13:11:45.544Z,100677.08
2023-05-04T13:14:19.182Z,100678.99
2023-05-04T13:16:51.553Z,100671.09
2023-05-04T13:19:23.674Z,100667.34
2023-05-04T13:21:56.128Z,100670.08
2023-05-04T13:24:29.661Z,100669.75
2023-05-04T13:27:01.537Z,100666.67
2023-05-04T13:29:34.403Z,100662.55
2023-05-04T13:32:07.801Z,100660.32
2023-05-04T13:34:40.030Z,100661.71
2023-05-04T13:37:13.547Z,100664.84
2023-05-04T13:39:45.575Z,100653.16
2023-05-04T13:42:18.008Z,100654.68
2023-05-04T13:44:49.854Z,100651.80
2023-05-04T13:47:23.606Z,100650.06
2023-05-04T13:49:55.330Z,100647.32
2023-05-04T13:52:28.000Z,100651.78
2023-05-04T13:54:59.907Z,100648.18
2023-05-04T13:57:31.985Z,100648.53
2023-05-04T14:00:08.469Z,100642.51
2023-05-04T14:02:47.345Z,100645.26
2023-05-04T14:05:21.668Z,100637.88
2023-05-04T14:07:54.044Z,100647.84
2023-05-04T14:10:26.236Z,100646.11
2023-05-04T14:12:57.978Z,100656.88
2023-05-04T14:15:29.718Z,100660.46
2023-05-04T14:18:01.327Z,100654.94
2023-05-04T14:20:33.398Z,100649.95
2023-05-04T14:23:05.459Z,100650.95
2023-05-04T14:25:41.877Z,100655.76
2023-05-04T14:28:15.630Z,100656.44
2023-05-04T14:30:47.320Z,100661.59
2023-05-04T14:33:19.148Z,100653.56
2023-05-04T14:35:51.264Z,100655.60
2023-05-04T14:38:23.084Z,100645.17
2023-05-04T14:40:55.514Z,100643.42
2023-05-04T14:43:27.594Z,100641.84
2023-05-04T14:46:02.368Z,100645.12
2023-05-04T14:48:34.518Z,100643.71
2023-05-04T14:51:07.289Z,100648.84
2023-05-04T14:53:39.786Z,100647.81
2023-05-04T14:56:11.974Z,100652.91
2023-05-04T14:58:43.559Z,100648.08
2023-05-04T15:01:15.716Z,100653.38
2023-05-04T15:03:47.443Z,100655.41
2023-05-04T15:06:19.485Z,100667.55
2023-05-04T15:08:51.128Z,100657.57
2023-05-04T15:11:22.895Z,100657.06
2023-05-04T15:13:57.212Z,100666.42
2023-05-04T15:16:31.016Z,100661.73
2023-05-04T15:19:03.338Z,100668.70
2023-05-04T15:21:35.907Z,100658.01
2023-05-04T15:24:07.617Z,100664.80
2023-05-04T15:26:40.264Z,100659.64
2023-05-04T15:29:12.087Z,100654.83
2023-05-04T15:31:44.409Z,100660.63
2023-05-04T15:34:18.458Z,100661.94
2023-05-04T15:36:50.162Z,100663.63
2023-05-04T15:39:21.834Z,100663.59
2023-05-04T15:41:54.349Z,100670.41
2023-05-04T15:44:27.796Z,100675.30
2023-05-04T15:47:20.670Z,100673.72
2023-05-04T15:49:53.790Z,100677.60
2023-05-04T15:52:27.107Z,100679.16
2023-05-04T15:55:12.391Z,100681.89
2023-05-04T15:57:34.904Z,100681.67
2023-05-04T16:00:09.017Z,100679.81
2023-05-04T16:02:41.659Z,100675.68
2023-05-04T16:05:13.959Z,100679.00
2023-05-04T16:07:46.242Z,100687.11
2023-05-04T16:10:18.351Z,100688.03
2023-05-04T16:12:50.555Z,100691.07
2023-05-04T16:15:22.468Z,100702.99
2023-05-04T16:17:54.318Z,100704.32
2023-05-04T16:20:26.908Z,100704.09
2023-05-04T16:22:58.801Z,100715.56
2023-05-04T16:25:31.003Z,100711.42
2023-05-04T16:28:02.675Z,100714.77
2023-05-04T16:30:35.350Z,100725.23
2023-05-04T16:33:09.361Z,100722.27
2023-05-04T16:35:41.784Z,100719.98
2023-05-04T16:38:13.848Z,100724.73
2023-05-04T16:40:45.793Z,100726.34
2023-05-04T16:43:27.683Z,100734.84
2023-05-04T16:45:59.835Z,100736.88
2023-05-04T16:48:31.895Z,100737.97
2023-05-04T16:51:05.630Z,100735.83
2023-05-04T16:53:38.557Z,100733.14
2023-05-04T16:56:19.704Z,100730.51
2023-05-04T16:58:52.544Z,100739.14
2023-05-04T17:01:25.127Z,100735.14
2023-05-04T17:03:57.336Z,100741.38
2023-05-04T17:06:29.627Z,100739.29
2023-05-04T17:09:03.757Z,100740.11
2023-05-04T17:11:35.808Z,100743.27
2023-05-04T17:14:08.806Z,100743.56
2023-05-04T17:16:41.198Z,100746.88
2023-05-04T17:19:13.428Z,100754.27
2023-05-04T17:21:45.533Z,100760.02
2023-05-04T17:24:18.648Z,100757.95
2023-05-04T17:26:50.975Z,100758.45
2023-05-04T17:29:23.270Z,100759.81
2023-05-04T17:31:55.702Z,100766.08
2023-05-04T17:34:27.683Z,100769.20
2023-05-04T17:37:02.633Z,100777.44
2023-05-04T17:39:35.781Z,100779.75
2023-05-04T17:42:19.932Z,100777.59
2023-05-04T17:44:52.182Z,100777.94
2023-05-04T17:47:23.864Z,100773.84
2023-05-04T17:49:55.519Z,100767.48
2023-05-04T17:52:27.071Z,100763.30
2023-05-04T17:54:59.079Z,100768.75
2023-05-04T17:57:31.184Z,100761.72
2023-05-04T18:00:05.585Z,100750.22
2023-05-04T18:02:38.642Z,100750.54
2023-05-04T18:05:11.074Z,100749.07
2023-05-04T18:07:43.540Z,100760.86
2023-05-04T18:10:15.472Z,100764.03
2023-05-04T18:12:48.512Z,100767.74
2023-05-04T18:15:23.580Z,100772.11
2023-05-04T18:17:56.185Z,100773.27
2023-05-04T18:20:28.569Z,100775.85
2023-05-04T18:23:01.377Z,100780.95
2023-05-04T18:25:34.561Z,100783.45
2023-05-04T18:30:51.645Z,100781.38
2023-05-04T18:33:23.644Z,100792.00
2023-05-04T18:35:57.052Z,100788.17
2023-05-04T18:38:30.725Z,100797.23
2023-05-04T18:41:03.317Z,100805.09
2023-05-04T18:43:37.782Z,100794.45
2023-05-04T18:46:10.101Z,100795.46
2023-05-04T18:48:41.973Z,100797.17
2023-05-04T18:51:14.418Z,100797.14
2023-05-04T18:53:48.280Z,100790.95
2023-05-04T18:59:05.764Z,100806.55
2023-05-04T19:01:38.836Z,100795.49
2023-05-04T19:04:12.825Z,100795.55
2023-05-04T19:06:47.783Z,100782.34
2023-05-04T19:09:21.446Z,100770.35
2023-05-04T19:11:53.490Z,100754.91
2023-05-04T19:14:28.799Z,100768.67
2023-05-04T19:17:01.558Z,100784.71
2023-05-04T19:19:37.796Z,100796.15
2023-05-04T19:22:11.630Z,100790.89
2023-05-04T19:24:43.728Z,100781.90
2023-05-04T19:27:17.457Z,100778.05
2023-05-04T19:29:49.945Z,100789.69
2023-05-04T19:32:24.817Z,100792.41
2023-05-04T19:34:56.638Z,100795.53
2023-05-04T19:37:28.772Z,100800.77
2023-05-04T19:40:00.903Z,100802.17
2023-05-04T19:42:33.535Z,100804.59
2023-05-04T19:45:06.609Z,100808.41
2023-05-04T19:47:39.171Z,100794.72
2023-05-04T19:55:39.211Z,100777.82
2023-05-04T19:58:11.288Z,100789.84
2023-05-04T20:00:43.187Z,100792.70
2023-05-04T20:03:17.145Z,100795.06
2023-05-04T20:05:48.933Z,100793.22
2023-05-04T20:08:20.895Z,100787.20
2023-05-04T20:10:52.649Z,100790.67
2023-05-04T20:13:25.662Z,100772.63
2023-05-04T20:15:57.157Z,100765.18
2023-05-04T20:18:28.989Z,100745.30
2023-05-04T20:21:01.431Z,100724.38
2023-05-04T20:23:34.265Z,100732.92
2023-05-04T20:26:06.308Z,100752.32
2023-05-04T20:28:38.830Z,100766.41
2023-05-04T20:31:10.506Z,100769.25
2023-05-04T20:33:42.298Z,100760.78
2023-05-04T20:36:14.025Z,100770.70
2023-05-04T20:38:45.847Z,100778.25
2023-05-04T20:41:17.770Z,100776.84
2023-05-04T20:43:50.281Z,100773.11
2023-05-04T20:46:22.056Z,100762.30
2023-05-04T20:48:54.455Z,100761.68
2023-05-04T20:51:27.163Z,100747.19
2023-05-04T20:53:59.301Z,100742.98
2023-05-04T20:56:30.897Z,100732.66
2023-05-04T20:59:02.875Z,100726.31
2023-05-04T21:01:34.880Z,100723.81
2023-05-04T21:04:07.097Z,100725.06
2023-05-04T21:06:39.161Z,100727.79
2023-05-04T21:09:11.472Z,100736.73
2023-05-04T21:11:43.708Z,100748.55
2023-05-04T21:14:15.561Z,100767.27
2023-05-04T21:16:47.429Z,100759.23
2023-05-04T21:19:19.356Z,100751.06
2023-05-04T21:21:51.310Z,100732.48
2023-05-04T21:24:23.632Z,100735.95
2023-05-04T21:26:55.500Z,100740.88
2023-05-04T21:29:28.335Z,100746.97
2023-05-04T21:32:00.082Z,100758.00
2023-05-04T21:34:31.981Z,100765.34
2023-05-04T21:37:04.367Z,100758.33
2023-05-04T21:39:36.949Z,100775.22
2023-05-04T21:42:09.618Z,100784.36
2023-05-04T21:44:42.895Z,100791.81
2023-05-04T21:47:14.704Z,100789.97
2023-05-04T21:49:46.884Z,100771.06
2023-05-04T21:52:18.586Z,100735.11
2023-05-04T21:54:50.634Z,100712.87
2023-05-04T21:57:22.385Z,100715.41
2023-05-04T21:59:54.494Z,100711.12
2023-05-04T22:02:26.678Z,100709.45
2023-05-04T22:04:58.534Z,100720.84
2023-05-04T22:07:30.319Z,100745.97
2023-05-04T22:10:01.914Z,100760.44
2023-05-04T22:12:33.801Z,100765.78
2023-05-04T22:15:06.710Z,100783.73
2023-05-04T22:17:38.901Z,100783.98
2023-05-04T22:20:11.697Z,100782.05
2023-05-04T22:22:44.148Z,100784.38
2023-05-04T22:25:16.113Z,100790.20
2023-05-04T22:27:48.085Z,100785.97
2023-05-04T22:30:21.530Z,100780.73
2023-05-04T22:32:53.961Z,100779.86
2023-05-04T22:35:25.736Z,100770.60
2023-05-04T22:37:57.751Z,100770.38
2023-05-04T22:40:29.553Z,100768.50
2023-05-04T22:43:01.473Z,100761.83
2023-05-04T22:45:35.994Z,100752.44
2023-05-04T22:48:07.623Z,100750.47
2023-05-04T22:50:39.641Z,100747.75
2023-05-04T22:53:11.665Z,100741.56
2023-05-04T22:55:43.461Z,100736.13
2023-05-04T22:58:15.777Z,100739.50
2023-05-04T23:00:47.962Z,100739.75
2023-05-04T23:03:19.724Z,100742.73
2023-05-04T23:05:51.459Z,100733.70
2023-05-04T23:08:23.996Z,100722.96
2023-05-04T23:10:55.532Z,100726.94
2023-05-04T23:13:27.808Z,100733.98
2023-05-04T23:15:59.652Z,100740.03
2023-05-04T23:18:33.186Z,100742.27
2023-05-04T23:21:05.127Z,100737.70
2023-05-04T23:23:38.446Z,100741.40
2023-05-04T23:26:10.413Z,100737.42
2023-05-04T23:28:42.221Z,100729.88
2023-05-04T23:31:14.058Z,100735.84
2023-05-04T23:33:45.696Z,100730.02
2023-05-04T23:36:17.444Z,100726.45
2023-05-04T23:38:49.180Z,100730.66
2023-05-04T23:41:20.888Z,100726.45
2023-05-04T23:43:52.725Z,100716.55
2023-05-04T23:46:24.484Z,100723.86
2023-05-04T23:48:56.123Z,100718.78
2023-05-04T23:51:28.602Z,100711.37
2023-05-04T23:54:00.356Z,100707.30
2023-05-04T23:56:33.525Z,100716.30
2023-05-04T23:59:05.786Z,100715.45
